Time;durP1;ratioP1;P1;durP2;ratioP2;P2;SDS_P1;SDS_P2;PMS_P1;PMS_P2;Temp;Humidity;BMP_temperature;BMP_pressure;BME280_temperature;BME280_humidity;BME280_pressure;Samples;Min_cycle;Max_cycle;Signal;HPM_P1;HPM_P2
2024/01/12 00:00:20;;;;;;;1999.90;999.90;;;3.90;99.90;;;;;;5091280;28;20419;-69
2024/01/12 00:02:46;;;;;;;1999.90;999.90;;;3.90;99.90;;;;;;5091850;28;20119;-65
2024/01/12 00:05:12;;;;;;;1999.90;999.90;;;3.90;99.90;;;;;;5094683;28;20103;-69
2024/01/12 00:07:38;;;;;;;1999.90;999.90;;;3.80;99.90;;;;;;5095992;28;20023;-65
2024/01/12 00:10:04;;;;;;;1999.90;999.90;;;3.90;99.90;;;;;;5095397;28;20028;-64
2024/01/12 00:12:30;;;;;;;1999.90;999.90;;;3.80;99.90;;;;;;5096339;28;20020;-69
2024/01/12 00:14:56;;;;;;;1999.90;999.90;;;3.90;99.90;;;;;;5095970;28;20392;-64
2024/01/12 00:17:22;;;;;;;1999.90;999.90;;;3.90;99.90;;;;;;5095274;28;20042;-65
2024/01/12 00:19:48;;;;;;;1999.90;999.90;;;3.90;99.90;;;;;;5095529;28;20043;-70
2024/01/12 00:22:14;;;;;;;1999.90;999.90;;;3.70;99.90;;;;;;5095105;28;20031;-69
2024/01/12 00:24:39;;;;;;;1999.90;999.90;;;3.80;99.90;;;;;;5095280;28;20028;-69
2024/01/12 00:27:05;;;;;;;1999.90;999.90;;;3.70;99.90;;;;;;5087926;28;20056;-70
2024/01/12 00:29:31;;;;;;;1999.90;999.90;;;3.70;99.90;;;;;;5092501;28;20066;-69
2024/01/12 00:31:57;;;;;;;1999.90;999.90;;;3.70;99.90;;;;;;5095553;28;20505;-69
2024/01/12 00:34:23;;;;;;;1999.90;999.90;;;3.80;99.90;;;;;;5077261;28;20024;-70
2024/01/12 00:36:49;;;;;;;1999.90;999.90;;;3.80;99.90;;;;;;5094958;28;20028;-68
2024/01/12 00:39:17;;;;;;;1999.90;999.90;;;3.70;99.90;;;;;;5092493;28;20035;-69
2024/01/12 00:41:42;;;;;;;1999.90;999.90;;;3.70;99.90;;;;;;5095442;28;20422;-70
2024/01/12 00:44:08;;;;;;;1999.90;999.90;;;3.80;99.90;;;;;;5094606;28;20067;-69
2024/01/12 00:46:34;;;;;;;1999.90;999.90;;;3.80;99.90;;;;;;5096048;28;20046;-69
2024/01/12 00:48:59;;;;;;;1999.90;999.90;;;3.80;99.90;;;;;;5095054;28;20031;-69
2024/01/12 00:51:25;;;;;;;1999.90;999.90;;;3.70;99.90;;;;;;5094624;28;20089;-69
2024/01/12 00:53:51;;;;;;;1999.90;999.90;;;3.70;99.90;;;;;;5087922;28;20039;-69
2024/01/12 00:56:17;;;;;;;1999.90;999.90;;;3.70;99.90;;;;;;5095783;28;20335;-69
2024/01/12 00:58:43;;;;;;;1999.90;999.90;;;3.60;99.90;;;;;;5094891;28;20020;-69
2024/01/12 01:01:09;;;;;;;1999.90;999.90;;;3.50;99.90;;;;;;5094981;28;20055;-69
2024/01/12 01:03:37;;;;;;;1999.90;999.90;;;3.50;99.90;;;;;;5094558;28;20108;-69
2024/01/12 01:06:03;;;;;;;1999.90;999.90;;;3.50;99.90;;;;;;5073437;28;20322;-69
2024/01/12 01:08:29;;;;;;;1999.90;999.90;;;3.50;99.90;;;;;;5069291;28;20021;-69
2024/01/12 01:10:54;;;;;;;1999.90;999.90;;;3.50;99.90;;;;;;5094180;28;20043;-69
2024/01/12 01:13:20;;;;;;;1999.90;999.90;;;3.60;99.90;;;;;;5089316;28;20028;-69
2024/01/12 01:15:46;;;;;;;1999.90;999.90;;;3.60;99.90;;;;;;5095318;28;20032;-69
2024/01/12 01:18:11;;;;;;;1999.90;999.90;;;3.40;99.90;;;;;;5084225;28;20035;-69
2024/01/12 01:20:38;;;;;;;1999.90;999.90;;;3.30;99.90;;;;;;5094562;28;20032;-69
2024/01/12 01:23:04;;;;;;;;;;;3.30;99.90;;;;;;5089738;28;20021;-69
2024/01/12 01:25:30;;;;;;;1999.90;999.90;;;3.20;99.90;;;;;;5090410;28;19916;-70
2024/01/12 01:27:55;;;;;;;1999.90;999.90;;;3.20;99.90;;;;;;5089942;28;20027;-65
2024/01/12 01:30:21;;;;;;;1999.90;999.90;;;3.30;99.90;;;;;;5094288;28;20020;-65
2024/01/12 01:32:50;;;;;;;1999.90;999.90;;;3.30;99.90;;;;;;5084600;28;20064;-69
2024/01/12 01:35:16;;;;;;;1999.90;999.90;;;3.30;99.90;;;;;;5094633;28;20415;-69
2024/01/12 01:37:43;;;;;;;1999.90;999.90;;;3.30;99.90;;;;;;5094378;28;20028;-69
2024/01/12 01:40:09;;;;;;;1999.90;999.90;;;3.30;99.90;;;;;;5088241;28;20468;-69
2024/01/12 01:42:35;;;;;;;1999.90;999.90;;;3.20;99.90;;;;;;5093949;28;20677;-69
2024/01/12 01:45:02;;;;;;;1999.90;999.90;;;3.10;99.90;;;;;;5094837;28;20031;-65
2024/01/12 01:47:28;;;;;;;1999.90;999.90;;;3.20;99.90;;;;;;5094204;28;20024;-69
2024/01/12 01:49:55;;;;;;;1999.90;999.90;;;3.20;99.90;;;;;;5094007;28;20361;-69
2024/01/12 01:52:22;;;;;;;1999.90;999.90;;;3.20;99.90;;;;;;5094283;28;20051;-64
2024/01/12 01:54:48;;;;;;;1999.90;999.90;;;3.10;99.90;;;;;;5090550;28;20107;-69
2024/01/12 01:57:14;;;;;;;1999.90;999.90;;;3.20;99.90;;;;;;5093456;28;20399;-69
2024/01/12 01:59:41;;;;;;;1999.90;999.90;;;3.10;99.90;;;;;;5094183;28;20090;-69
2024/01/12 02:02:08;;;;;;;1999.90;999.90;;;3.10;99.90;;;;;;5093543;28;20059;-69
2024/01/12 02:04:34;;;;;;;1999.90;999.90;;;3.10;99.90;;;;;;5079919;28;20035;-69
2024/01/12 02:07:00;;;;;;;1999.90;999.90;;;3.20;99.90;;;;;;5093895;28;20402;-64
2024/01/12 02:09:28;;;;;;;1999.90;999.90;;;3.10;99.90;;;;;;5092021;28;20015;-69
2024/01/12 02:11:54;;;;;;;1999.90;999.90;;;3.10;99.90;;;;;;5075838;28;20032;-65
2024/01/12 02:14:20;;;;;;;1999.90;999.90;;;3.20;99.90;;;;;;5093894;28;20028;-69
2024/01/12 02:16:46;;;;;;;1999.90;999.90;;;3.20;99.90;;;;;;5093364;28;20031;-69
2024/01/12 02:19:12;;;;;;;1999.90;999.90;;;3.20;99.90;;;;;;5093584;28;20032;-69
2024/01/12 02:21:37;;;;;;;1999.90;999.90;;;3.10;99.90;;;;;;5093727;28;20035;-69
2024/01/12 02:24:03;;;;;;;1999.90;999.90;;;3.10;99.90;;;;;;5092048;28;20378;-69
2024/01/12 02:26:29;;;;;;;1999.90;999.90;;;3.10;99.90;;;;;;5092730;28;20024;-69
2024/01/12 02:28:56;;;;;;;1999.90;999.90;;;3.00;99.90;;;;;;5092339;28;20028;-69
2024/01/12 02:31:22;;;;;;;;;;;3.00;99.90;;;;;;5076097;28;20098;-65
2024/01/12 02:33:49;;;;;;;1999.90;999.90;;;3.10;99.90;;;;;;5082339;28;19908;-69
2024/01/12 02:36:15;;;;;;;1999.90;999.90;;;3.10;99.90;;;;;;5088618;28;20030;-69
2024/01/12 02:38:41;;;;;;;1999.90;999.90;;;3.10;99.90;;;;;;5093279;28;20047;-70
2024/01/12 02:41:07;;;;;;;1999.90;999.90;;;3.10;99.90;;;;;;5082170;28;20030;-70
2024/01/12 02:43:33;;;;;;;1999.90;999.90;;;3.00;99.90;;;;;;5088324;28;20411;-69
2024/01/12 02:45:58;;;;;;;1999.90;999.90;;;3.00;99.90;;;;;;5089568;28;20100;-69
2024/01/12 02:48:24;;;;;;;1999.90;999.90;;;3.00;99.90;;;;;;5082358;28;20190;-70
2024/01/12 02:50:50;;;;;;;1999.90;999.90;;;2.90;99.90;;;;;;5093202;28;20101;-69
2024/01/12 02:53:17;;;;;;;1999.90;999.90;;;2.90;99.90;;;;;;5092324;28;21821;-65
2024/01/12 02:55:43;;;;;;;1999.90;999.90;;;3.00;99.90;;;;;;5090848;28;20024;-68
2024/01/12 02:58:08;;;;;;;1999.90;999.90;;;3.00;99.90;;;;;;5092229;28;20032;-69
2024/01/12 03:00:34;;;;;;;1999.90;999.90;;;3.00;99.90;;;;;;5092945;28;20099;-70
2024/01/12 03:02:59;;;;;;;1999.90;999.90;;;3.00;99.90;;;;;;5092988;28;20063;-69
2024/01/12 03:05:25;;;;;;;1999.90;999.90;;;3.00;99.90;;;;;;5091480;28;20028;-69
2024/01/12 03:07:51;;;;;;;1999.90;999.90;;;3.10;99.90;;;;;;5091507;28;20390;-69
2024/01/12 03:10:17;;;;;;;1999.90;999.90;;;3.20;99.90;;;;;;5081052;28;20582;-66
2024/01/12 03:12:43;;;;;;;1999.90;999.90;;;3.30;99.90;;;;;;5085137;28;20039;-69
2024/01/12 03:15:09;;;;;;;1999.90;999.90;;;3.40;99.90;;;;;;5076652;28;20078;-69
2024/01/12 03:17:34;;;;;;;1999.90;999.90;;;3.40;99.90;;;;;;5086255;28;20772;-69
2024/01/12 03:20:00;;;;;;;1999.90;999.90;;;3.40;99.90;;;;;;5086689;28;20085;-70
2024/01/12 03:22:26;;;;;;;1999.90;999.90;;;3.40;99.90;;;;;;5092479;28;20032;-64
2024/01/12 03:24:51;;;;;;;1999.90;999.90;;;3.40;99.90;;;;;;5073883;28;20036;-71
2024/01/12 03:27:17;;;;;;;1999.90;999.90;;;3.40;99.90;;;;;;5087899;28;20024;-64
2024/01/12 03:29:43;;;;;;;1999.90;999.90;;;3.30;99.90;;;;;;5088631;28;20024;-69
2024/01/12 03:32:08;;;;;;;1999.90;999.90;;;3.30;99.90;;;;;;5091896;28;20507;-64
2024/01/12 03:34:34;;;;;;;1999.90;999.90;;;3.30;99.90;;;;;;5088002;28;20039;-69
2024/01/12 03:36:59;;;;;;;1999.90;999.90;;;3.30;99.90;;;;;;5083662;28;20044;-70
2024/01/12 03:39:25;;;;;;;1999.90;999.90;;;3.30;99.90;;;;;;5077957;28;20145;-70
2024/01/12 03:41:51;;;;;;;1999.90;999.90;;;3.30;99.90;;;;;;5092781;28;20108;-70
2024/01/12 03:44:16;;;;;;;1999.90;999.90;;;3.30;99.90;;;;;;5088378;28;20042;-70
2024/01/12 03:46:42;;;;;;;1999.90;999.90;;;3.20;99.90;;;;;;5090012;28;20063;-69
2024/01/12 03:49:08;;;;;;;1999.90;999.90;;;3.20;99.90;;;;;;5088762;28;20029;-69
2024/01/12 03:51:33;;;;;;;1999.90;999.90;;;3.20;99.90;;;;;;5060368;28;20036;-70
2024/01/12 03:53:59;;;;;;;1999.90;999.90;;;3.20;99.90;;;;;;5080454;28;20150;-70
2024/01/12 03:56:25;;;;;;;1999.90;999.90;;;3.20;99.90;;;;;;5082281;28;20040;-69
2024/01/12 03:58:50;;;;;;;1999.90;999.90;;;3.10;99.90;;;;;;5088169;28;20109;-69
2024/01/12 04:01:17;;;;;;;1999.90;999.90;;;3.10;99.90;;;;;;5084566;28;20046;-70
2024/01/12 04:03:43;;;;;;;1999.90;999.90;;;3.10;99.90;;;;;;5077370;28;20038;-70
2024/01/12 04:06:09;;;;;;;1999.90;999.90;;;3.20;99.90;;;;;;5090260;28;20036;-72
2024/01/12 04:08:35;;;;;;;1999.90;999.90;;;3.10;99.90;;;;;;5085932;28;20039;-70
2024/01/12 04:11:01;;;;;;;1999.90;999.90;;;3.00;99.90;;;;;;5082825;28;20024;-65
2024/01/12 04:13:26;;;;;;;1999.90;999.90;;;3.00;99.90;;;;;;5090904;28;20035;-69
2024/01/12 04:15:53;;;;;;;1999.90;999.90;;;3.00;99.90;;;;;;5089944;28;20039;-65
2024/01/12 04:18:19;;;;;;;1999.90;999.90;;;2.90;99.90;;;;;;5089303;28;20028;-69
2024/01/12 04:20:44;;;;;;;1999.90;999.90;;;2.90;99.90;;;;;;5090772;28;20081;-70
2024/01/12 04:23:10;;;;;;;1999.90;999.90;;;2.90;99.90;;;;;;5073926;28;20081;-70
2024/01/12 04:25:36;;;;;;;1999.90;999.90;;;2.90;99.90;;;;;;5090881;28;20056;-70
2024/01/12 04:28:02;;;;;;;1999.90;999.90;;;2.90;99.90;;;;;;5088561;28;20028;-69
2024/01/12 04:30:27;;;;;;;1999.90;999.90;;;2.90;99.90;;;;;;5083614;28;20322;-65
2024/01/12 04:32:53;;;;;;;1999.90;999.90;;;2.80;99.90;;;;;;5085860;28;20140;-69
2024/01/12 04:35:19;;;;;;;1999.90;999.90;;;2.70;99.90;;;;;;5089599;28;20051;-70
2024/01/12 04:37:44;;;;;;;1999.90;999.90;;;2.80;99.90;;;;;;5091099;28;20032;-70
2024/01/12 04:40:11;;;;;;;1999.90;999.90;;;2.70;99.90;;;;;;5085339;28;20024;-70
2024/01/12 04:42:36;;;;;;;1999.90;999.90;;;2.70;99.90;;;;;;5089309;28;20031;-70
2024/01/12 04:45:02;;;;;;;1999.90;999.90;;;2.60;99.90;;;;;;5087426;28;20036;-69
2024/01/12 04:47:30;;;;;;;1999.90;999.90;;;2.70;99.90;;;;;;5091604;28;20069;-69
2024/01/12 04:49:55;;;;;;;1999.90;999.90;;;2.80;99.90;;;;;;5084444;28;20028;-70
2024/01/12 04:52:21;;;;;;;1999.90;999.90;;;2.80;99.90;;;;;;5089216;28;20465;-65
2024/01/12 04:54:47;;;;;;;1999.90;999.90;;;2.80;99.90;;;;;;5090686;28;20039;-65
2024/01/12 04:57:13;;;;;;;1999.90;999.90;;;2.70;99.90;;;;;;5095553;28;20085;-67
2024/01/12 04:59:40;;;;;;;1999.90;999.90;;;2.70;99.90;;;;;;5076390;28;20093;-69
2024/01/12 05:02:07;;;;;;;1999.90;999.90;;;2.60;99.90;;;;;;5095276;28;20515;-69
2024/01/12 05:04:32;;;;;;;;;;;2.60;99.90;;;;;;5092375;28;20032;-70
2024/01/12 05:06:58;;;;;;;1999.90;999.90;;;2.60;99.90;;;;;;5093662;28;19915;-65
2024/01/12 05:09:24;;;;;;;1999.90;999.90;;;2.60;99.90;;;;;;5091083;28;20028;-65
2024/01/12 05:11:49;;;;;;;1999.90;999.90;;;2.60;99.90;;;;;;5095177;28;20016;-69
2024/01/12 05:14:15;;;;;;;1999.90;999.90;;;2.50;99.90;;;;;;5074083;28;20059;-70
2024/01/12 05:16:41;;;;;;;1999.90;999.90;;;2.50;99.90;;;;;;5093541;28;20296;-69
2024/01/12 05:19:07;;;;;;;1999.90;999.90;;;2.60;99.90;;;;;;5089501;28;20426;-69
2024/01/12 05:21:33;;;;;;;1999.90;999.90;;;2.60;99.90;;;;;;5090618;28;20040;-70
2024/01/12 05:23:58;;;;;;;1999.90;999.90;;;2.60;99.90;;;;;;5094220;28;20115;-70
2024/01/12 05:26:24;;;;;;;1999.90;999.90;;;2.60;99.90;;;;;;5094868;28;20303;-70
2024/01/12 05:28:50;;;;;;;1999.90;999.90;;;2.50;99.90;;;;;;5094689;28;20027;-70
2024/01/12 05:31:15;;;;;;;1999.90;999.90;;;2.50;99.90;;;;;;5094590;28;20067;-69
2024/01/12 05:33:41;;;;;;;1999.90;999.90;;;2.60;99.90;;;;;;5094579;28;20066;-70
2024/01/12 05:36:07;;;;;;;1999.90;999.90;;;2.50;99.90;;;;;;5093217;28;20116;-70
2024/01/12 05:38:32;;;;;;;1999.90;999.90;;;2.50;99.90;;;;;;5094815;28;20032;-70
2024/01/12 05:40:58;;;;;;;1999.90;999.90;;;2.50;99.90;;;;;;5090640;28;20071;-65
2024/01/12 05:43:24;;;;;;;1999.90;999.90;;;2.60;99.90;;;;;;5094306;28;20055;-70
2024/01/12 05:45:49;;;;;;;1999.90;999.90;;;2.60;99.90;;;;;;5084224;28;20437;-70
2024/01/12 05:48:15;;;;;;;1999.90;999.90;;;2.60;99.90;;;;;;5094827;28;20078;-70
2024/01/12 05:50:41;;;;;;;1999.90;999.90;;;2.70;99.90;;;;;;5094757;28;20373;-70
2024/01/12 05:53:06;;;;;;;1999.90;999.90;;;2.60;99.90;;;;;;5093051;28;20043;-70
2024/01/12 05:55:32;;;;;;;1999.90;999.90;;;2.60;99.90;;;;;;5093958;28;20046;-70
2024/01/12 05:57:58;;;;;;;1999.90;999.90;;;2.70;99.90;;;;;;5093237;28;20436;-70
2024/01/12 06:00:23;;;;;;;1999.90;999.90;;;2.70;99.90;;;;;;5093613;28;20035;-70
2024/01/12 06:02:49;;;;;;;1999.90;999.90;;;2.70;99.90;;;;;;5093143;28;20045;-70
2024/01/12 06:05:15;;;;;;;1999.90;999.90;;;2.70;99.90;;;;;;5080530;28;20582;-70
2024/01/12 06:07:40;;;;;;;1999.90;999.90;;;2.70;99.90;;;;;;5094085;28;20028;-69
2024/01/12 06:10:08;;;;;;;1999.90;999.90;;;2.70;99.90;;;;;;5092107;28;20028;-65
2024/01/12 06:12:34;;;;;;;1999.90;999.90;;;2.70;99.90;;;;;;5093889;28;20032;-65
2024/01/12 06:15:00;;;;;;;1999.90;999.90;;;2.80;99.90;;;;;;5093104;28;20052;-69
2024/01/12 06:17:26;;;;;;;1999.90;999.90;;;2.70;99.90;;;;;;5090704;28;20081;-69
2024/01/12 06:19:52;;;;;;;1999.90;999.90;;;2.60;99.90;;;;;;5089562;28;20339;-65
2024/01/12 06:22:18;;;;;;;1999.90;999.90;;;2.60;99.90;;;;;;5071969;28;20089;-65
2024/01/12 06:24:44;;;;;;;1999.90;999.90;;;2.60;99.90;;;;;;5085055;28;20070;-69
2024/01/12 06:27:10;;;;;;;1999.90;999.90;;;2.70;99.90;;;;;;5088076;28;20343;-65
2024/01/12 06:29:39;;;;;;;1999.90;999.90;;;2.70;99.90;;;;;;5093414;28;20039;-70
2024/01/12 06:32:05;;;;;;;1999.90;999.90;;;2.60;99.90;;;;;;5070874;28;20051;-69
2024/01/12 06:34:30;;;;;;;1999.90;999.90;;;2.60;99.90;;;;;;5091878;28;20032;-70
2024/01/12 06:36:56;;;;;;;1999.90;999.90;;;2.60;99.90;;;;;;5093345;28;20428;-65
2024/01/12 06:39:22;;;;;;;1999.90;999.90;;;2.60;99.90;;;;;;5091424;28;20031;-70
2024/01/12 06:41:48;;;;;;;1999.90;999.90;;;2.60;99.90;;;;;;5074886;28;20028;-70
2024/01/12 06:44:14;;;;;;;1999.90;999.90;;;2.50;99.90;;;;;;5092370;28;20059;-70
2024/01/12 06:46:43;;;;;;;1999.90;999.90;;;2.50;99.90;;;;;;5093274;28;20620;-69
2024/01/12 06:49:09;;;;;;;1999.90;999.90;;;2.50;99.90;;;;;;5093515;28;20020;-69
2024/01/12 06:51:35;;;;;;;1999.90;999.90;;;2.50;99.90;;;;;;5085466;28;20036;-65
2024/01/12 06:54:01;;;;;;;1999.90;999.90;;;2.40;99.90;;;;;;5091797;28;20030;-69
2024/01/12 06:56:27;;;;;;;1999.90;999.90;;;2.40;99.90;;;;;;5090540;28;20327;-70
2024/01/12 06:58:53;;;;;;;1999.90;999.90;;;2.40;99.90;;;;;;5090538;28;20032;-69
2024/01/12 07:01:20;;;;;;;1999.90;999.90;;;2.40;99.90;;;;;;5089435;28;20047;-69
2024/01/12 07:03:46;;;;;;;1999.90;999.90;;;2.40;99.90;;;;;;5092070;28;20062;-70
2024/01/12 07:06:12;;;;;;;1999.90;999.90;;;2.40;99.90;;;;;;5084486;28;20056;-70
2024/01/12 07:08:38;;;;;;;1999.90;999.90;;;2.40;99.90;;;;;;5091582;28;20346;-70
2024/01/12 07:11:05;;;;;;;1999.90;999.90;;;2.40;99.90;;;;;;5064151;28;20319;-70
2024/01/12 07:13:30;;;;;;;1999.90;999.90;;;2.50;99.90;;;;;;5086506;28;20055;-65
2024/01/12 07:15:56;;;;;;;1999.90;999.90;;;2.40;99.90;;;;;;5081537;28;20398;-70
2024/01/12 07:18:22;;;;;;;1999.90;999.90;;;2.50;99.90;;;;;;5088682;28;20032;-70
2024/01/12 07:20:48;;;;;;;1999.90;999.90;;;2.50;99.90;;;;;;5084424;28;20403;-70
2024/01/12 07:23:13;;;;;;;1999.90;999.90;;;2.40;99.90;;;;;;5074486;28;20296;-65
2024/01/12 07:25:39;;;;;;;1999.90;999.90;;;2.40;99.90;;;;;;5084860;28;20087;-66
2024/01/12 07:28:07;;;;;;;1999.90;999.90;;;2.50;99.90;;;;;;5089423;28;20035;-70
2024/01/12 07:30:33;;;;;;;1999.90;999.90;;;2.40;99.90;;;;;;5086727;28;20025;-64
2024/01/12 07:32:59;;;;;;;1999.90;999.90;;;2.50;99.90;;;;;;5092329;28;20031;-67
2024/01/12 07:35:25;;;;;;;1999.90;999.90;;;2.40;99.90;;;;;;5070499;28;20272;-70
2024/01/12 07:37:51;;;;;;;1999.90;999.90;;;2.40;99.90;;;;;;5090826;28;20028;-70
2024/01/12 07:40:17;;;;;;;1999.90;999.90;;;2.40;99.90;;;;;;5091450;28;20111;-71
2024/01/12 07:42:43;;;;;;;1999.90;999.90;;;2.50;99.90;;;;;;5080716;28;20032;-65
2024/01/12 07:45:11;;;;;;;1999.90;999.90;;;2.40;99.90;;;;;;5073890;28;20024;-64
2024/01/12 07:47:37;;;;;;;1999.90;999.90;;;2.40;99.90;;;;;;5089864;28;20108;-65
2024/01/12 07:50:03;;;;;;;1999.90;999.90;;;2.40;99.90;;;;;;5088972;28;20117;-70
2024/01/12 07:52:28;;;;;;;1999.90;999.90;;;2.50;99.90;;;;;;5088458;28;20023;-70
2024/01/12 07:54:54;;;;;;;1999.90;999.90;;;2.60;99.90;;;;;;5083291;28;20025;-70
2024/01/12 07:57:19;;;;;;;1999.90;999.90;;;2.60;99.90;;;;;;5065574;28;20058;-70
2024/01/12 07:59:45;;;;;;;1999.90;999.90;;;2.60;99.90;;;;;;5082095;28;20032;-70
2024/01/12 08:02:11;;;;;;;1999.90;999.90;;;2.60;99.90;;;;;;5088203;28;20024;-70
2024/01/12 08:04:37;;;;;;;1999.90;999.90;;;2.70;99.90;;;;;;5073529;28;20032;-70
2024/01/12 08:07:04;;;;;;;1999.90;999.90;;;2.70;99.90;;;;;;5078209;28;20027;-70
2024/01/12 08:09:30;;;;;;;1999.90;999.90;;;2.80;99.90;;;;;;5082708;28;20024;-70
2024/01/12 08:11:56;;;;;;;1999.90;999.90;;;2.80;99.90;;;;;;5086302;28;20039;-70
2024/01/12 08:14:21;;;;;;;1999.90;999.90;;;3.00;99.90;;;;;;5092260;28;20039;-70
2024/01/12 08:16:47;;;;;;;1999.90;999.90;;;3.10;99.90;;;;;;5078269;28;20040;-65
2024/01/12 08:19:13;;;;;;;1999.90;999.90;;;3.20;99.90;;;;;;5082924;28;20442;-70
2024/01/12 08:21:39;;;;;;;1999.90;999.90;;;3.40;99.90;;;;;;5089947;28;20043;-70
2024/01/12 08:24:04;;;;;;;1999.90;999.90;;;3.40;99.90;;;;;;5088435;28;20032;-70
2024/01/12 08:26:30;;;;;;;1999.90;999.90;;;3.60;99.90;;;;;;5091716;28;20419;-70
2024/01/12 08:29:01;;;;;;;1999.90;999.90;;;3.70;99.90;;;;;;5095980;28;20486;-70
2024/01/12 08:31:30;;;;;;;1999.90;999.90;;;3.80;99.90;;;;;;5075854;28;20335;-69
2024/01/12 08:33:56;;;;;;;1999.90;999.90;;;3.90;99.90;;;;;;5085250;28;20433;-70
2024/01/12 08:36:22;;;;;;;1999.90;999.90;;;4.00;99.90;;;;;;5088890;28;20025;-69
2024/01/12 08:38:47;;;;;;;1999.90;999.90;;;4.10;99.90;;;;;;5085393;28;20036;-69
2024/01/12 08:41:13;;;;;;;1999.90;999.90;;;4.20;99.90;;;;;;5088924;28;20031;-70
2024/01/12 08:43:39;;;;;;;1999.90;999.90;;;4.20;99.90;;;;;;5095783;28;20525;-70
2024/01/12 08:46:08;;;;;;;1999.90;999.90;;;4.10;99.90;;;;;;5092025;28;20070;-69
2024/01/12 08:48:34;;;;;;;1999.90;999.90;;;4.20;99.90;;;;;;5091126;28;20345;-70
2024/01/12 08:51:00;;;;;;;1999.90;999.90;;;4.10;99.90;;;;;;5084876;28;20024;-69
2024/01/12 08:53:26;;;;;;;1999.90;999.90;;;4.00;99.90;;;;;;5077706;28;20299;-70
2024/01/12 08:55:52;;;;;;;1999.90;999.90;;;4.10;99.90;;;;;;5091711;28;20021;-70
2024/01/12 08:58:18;;;;;;;1999.90;999.90;;;4.10;99.90;;;;;;5092320;28;20027;-65
2024/01/12 09:00:43;;;;;;;1999.90;999.90;;;4.10;99.90;;;;;;5093579;28;20028;-64
2024/01/12 09:03:09;;;;;;;1999.90;999.90;;;4.20;99.90;;;;;;5092459;28;20453;-70
2024/01/12 09:05:35;;;;;;;1999.90;999.90;;;4.20;99.90;;;;;;5094895;28;20071;-64
2024/01/12 09:08:01;;;;;;;1999.90;999.90;;;4.20;99.90;;;;;;5091958;28;20028;-70
2024/01/12 09:10:28;;;;;;;1999.90;999.90;;;4.30;99.90;;;;;;5075312;28;20031;-65
2024/01/12 09:12:53;;;;;;;1999.90;999.90;;;4.30;99.90;;;;;;5075602;28;20119;-70
2024/01/12 09:15:19;;;;;;;1999.90;999.90;;;4.30;99.90;;;;;;5093255;28;20111;-64
2024/01/12 09:17:44;;;;;;;1999.90;999.90;;;4.40;99.90;;;;;;5091181;28;20065;-70
2024/01/12 09:20:10;;;;;;;1999.90;999.90;;;4.40;99.90;;;;;;5087747;28;20073;-64
2024/01/12 09:22:36;;;;;;;1999.90;999.90;;;4.40;99.90;;;;;;5090839;28;20107;-64
2024/01/12 09:25:02;;;;;;;1999.90;999.90;;;4.40;99.90;;;;;;5094181;28;20367;-69
2024/01/12 09:27:28;;;;;;;1999.90;999.90;;;4.40;99.90;;;;;;5082095;28;20024;-70
2024/01/12 09:29:53;;;;;;;1999.90;999.90;;;4.60;99.90;;;;;;5093678;28;20054;-69
2024/01/12 09:32:19;;;;;;;1999.90;999.90;;;4.70;99.90;;;;;;5088783;28;20049;-70
2024/01/12 09:34:45;;;;;;;1999.90;999.90;;;4.60;99.90;;;;;;5094808;28;20259;-70
2024/01/12 09:37:11;;;;;;;1999.90;999.90;;;4.60;99.90;;;;;;5084934;28;20056;-70
2024/01/12 09:39:36;;;;;;;1999.90;999.90;;;4.60;99.90;;;;;;5088399;28;20105;-70
2024/01/12 09:42:06;;;;;;;1999.90;999.90;;;4.70;99.90;;;;;;5085037;28;20070;-69
2024/01/12 09:44:38;;;;;;;1999.90;999.90;;;4.70;99.90;;;;;;5091889;28;20036;-70
2024/01/12 09:47:04;;;;;;;1999.90;999.90;;;4.70;99.90;;;;;;5093266;28;20115;-70
2024/01/12 09:49:31;;;;;;;1999.90;999.90;;;4.70;99.90;;;;;;5094674;28;20112;-70
2024/01/12 09:51:58;;;;;;;1999.90;999.90;;;4.60;99.90;;;;;;5092118;28;20050;-70
2024/01/12 09:54:24;;;;;;;1999.90;999.90;;;4.60;99.90;;;;;;5093585;28;20066;-69
2024/01/12 09:56:52;;;;;;;1999.90;999.90;;;4.50;99.90;;;;;;5093419;28;20063;-70
2024/01/12 09:59:20;;;;;;;1999.90;999.90;;;4.50;99.90;;;;;;5082478;28;20423;-70
2024/01/12 10:01:47;;;;;;;1999.90;999.90;;;4.50;99.90;;;;;;5086724;28;20042;-65
2024/01/12 10:04:12;;;;;;;1999.90;999.90;;;4.40;99.90;;;;;;5084881;28;20050;-68
2024/01/12 10:06:38;;;;;;;1999.90;999.90;;;4.40;99.90;;;;;;5093425;28;20033;-70
2024/01/12 10:09:04;;;;;;;1999.90;999.90;;;4.40;99.90;;;;;;5072001;28;20078;-70
2024/01/12 10:11:30;;;;;;;1999.90;999.90;;;4.50;99.90;;;;;;5071681;28;20471;-65
2024/01/12 10:13:55;;;;;;;1999.90;999.90;;;4.50;99.90;;;;;;5093118;28;20040;-70
2024/01/12 10:16:22;;;;;;;1999.90;999.90;;;4.60;99.90;;;;;;5088857;28;20165;-65
2024/01/12 10:18:48;;;;;;;1999.90;999.90;;;4.60;99.90;;;;;;5079829;28;20323;-70
2024/01/12 10:21:14;;;;;;;1999.90;999.90;;;4.70;99.90;;;;;;5086546;28;20114;-69
2024/01/12 10:23:43;;;;;;;1999.90;999.90;;;4.70;99.90;;;;;;5081268;28;20116;-70
2024/01/12 10:26:16;;;;;;;1999.90;999.90;;;4.70;99.90;;;;;;5078508;28;20043;-70
2024/01/12 10:28:42;;;;;;;1999.90;999.90;;;4.80;99.90;;;;;;5085037;28;20028;-69
2024/01/12 10:31:08;;;;;;;1999.90;999.90;;;4.90;99.90;;;;;;5090936;28;20051;-70
2024/01/12 10:33:34;;;;;;;1999.90;999.90;;;5.00;99.90;;;;;;5089322;28;20064;-64
2024/01/12 10:36:06;;;;;;;1999.90;999.90;;;5.20;99.90;;;;;;5074652;28;20078;-70
2024/01/12 10:38:38;;;;;;;1999.90;999.90;;;5.30;99.90;;;;;;5086477;28;20027;-70
2024/01/12 10:41:05;;;;;;;1999.90;999.90;;;5.40;99.90;;;;;;5088976;28;20028;-70
2024/01/12 10:43:36;;;;;;;1999.90;999.90;;;5.40;99.90;;;;;;5077510;28;20032;-70
2024/01/12 10:46:10;;;;;;;1999.90;999.90;;;5.40;99.90;;;;;;5081366;28;20495;-70
2024/01/12 10:48:43;;;;;;;1999.90;999.90;;;5.30;99.90;;;;;;5091459;28;20024;-70
2024/01/12 10:51:12;;;;;;;1999.90;999.90;;;5.20;99.90;;;;;;5091186;28;20024;-69
2024/01/12 10:53:53;;;;;;;1999.90;999.90;;;5.20;99.90;;;;;;5078630;28;20033;-69
2024/01/12 10:56:21;;;;;;;1999.90;999.90;;;5.10;99.90;;;;;;5075383;28;20067;-70
2024/01/12 10:58:48;;;;;;;1999.90;999.90;;;5.20;99.90;;;;;;5075668;28;20033;-70
2024/01/12 11:01:17;;;;;;;1999.90;999.90;;;5.10;99.90;;;;;;5071071;28;20035;-69
2024/01/12 11:03:47;;;;;;;1999.90;999.90;;;5.10;99.90;;;;;;5091530;28;20035;-65
2024/01/12 11:06:16;;;;;;;1999.90;999.90;;;5.10;99.90;;;;;;5092430;28;20168;-69
2024/01/12 11:08:43;;;;;;;1999.90;999.90;;;5.10;99.90;;;;;;5064897;28;20031;-66
2024/01/12 11:11:13;;;;;;;1999.90;999.90;;;5.10;99.90;;;;;;5091784;28;20023;-70
2024/01/12 11:13:39;;;;;;;1999.90;999.90;;;5.10;99.90;;;;;;5088473;28;20512;-70
2024/01/12 11:16:05;;;;;;;1999.90;999.90;;;5.10;99.90;;;;;;5092209;28;20550;-70
2024/01/12 11:18:33;;;;;;;1999.90;999.90;;;5.10;99.90;;;;;;5092533;28;20035;-66
2024/01/12 11:21:02;;;;;;;1999.90;999.90;;;5.20;99.90;;;;;;5090468;28;20028;-66
2024/01/12 11:23:28;;;;;;;1999.90;999.90;;;5.10;99.90;;;;;;5091593;28;20020;-70
2024/01/12 11:25:55;;;;;;;1999.90;999.90;;;5.10;99.90;;;;;;5091594;28;20437;-70
2024/01/12 11:28:20;;;;;;;1999.90;999.90;;;5.30;99.90;;;;;;5088820;28;20221;-65
2024/01/12 11:30:50;;;;;;;1999.90;999.90;;;5.50;99.90;;;;;;5090364;28;20135;-65
2024/01/12 11:33:17;;;;;;;1999.90;999.90;;;5.50;99.90;;;;;;5090653;28;20027;-70
2024/01/12 11:35:47;;;;;;;1999.90;999.90;;;5.40;99.90;;;;;;5091441;28;20078;-70
2024/01/12 11:38:18;;;;;;;1999.90;999.90;;;5.40;99.90;;;;;;5089416;28;20051;-70
2024/01/12 11:40:50;;;;;;;1999.90;999.90;;;5.50;99.90;;;;;;5079196;28;20047;-70
2024/01/12 11:43:19;;;;;;;1999.90;999.90;;;5.50;99.90;;;;;;5084374;28;20626;-65
2024/01/12 11:45:46;;;;;;;1999.90;999.90;;;5.60;99.90;;;;;;5091644;28;20044;-70
2024/01/12 11:48:15;;;;;;;1999.90;999.90;;;5.60;99.90;;;;;;5090948;28;20024;-66
2024/01/12 11:50:42;;;;;;;1999.90;999.90;;;5.50;99.90;;;;;;5069731;28;20110;-70
2024/01/12 11:53:10;;;;;;;1999.90;999.90;;;5.50;99.90;;;;;;5085822;28;20019;-71
2024/01/12 11:55:36;;;;;;;1999.90;999.90;;;5.40;99.90;;;;;;5088143;28;20071;-70
2024/01/12 11:58:02;;;;;;;1999.90;999.90;;;5.40;99.90;;;;;;5082856;28;20457;-70
2024/01/12 12:00:27;;;;;;;1999.90;999.90;;;5.40;99.90;;;;;;5082078;28;20058;-71
2024/01/12 12:02:53;;;;;;;1999.90;999.90;;;5.50;99.90;;;;;;5089086;28;20028;-70